sensor_id;sensor_type;location;lat;lon;timestamp;P1;durP1;ratioP1;P2;durP2;ratioP2
51614;SDS011;37695;52.960;6.188;2022-08-03T00:01:04;9.02;;;1.77;;
51614;SDS011;37695;52.960;6.188;2022-08-03T00:03:30;6.82;;;2.30;;
51614;SDS011;37695;52.960;6.188;2022-08-03T00:05:56;6.70;;;2.20;;
51614;SDS011;37695;52.960;6.188;2022-08-03T00:08:21;6.68;;;2.65;;
51614;SDS011;37695;52.960;6.188;2022-08-03T00:10:47;9.18;;;2.10;;
51614;SDS011;37695;52.960;6.188;2022-08-03T00:13:13;7.63;;;2.28;;
51614;SDS011;37695;52.960;6.188;2022-08-03T00:15:39;8.25;;;2.28;;
51614;SDS011;37695;52.960;6.188;2022-08-03T00:18:06;5.20;;;2.10;;
51614;SDS011;37695;52.960;6.188;2022-08-03T00:20:32;4.35;;;1.70;;
51614;SDS011;37695;52.960;6.188;2022-08-03T00:22:58;5.10;;;2.13;;
51614;SDS011;37695;52.960;6.188;2022-08-03T00:25:23;5.15;;;1.73;;
51614;SDS011;37695;52.960;6.188;2022-08-03T00:27:49;9.63;;;2.08;;
51614;SDS011;37695;52.960;6.188;2022-08-03T00:30:14;7.22;;;1.77;;
51614;SDS011;37695;52.960;6.188;2022-08-03T00:32:40;6.13;;;1.80;;
51614;SDS011;37695;52.960;6.188;2022-08-03T00:35:06;3.90;;;1.75;;
51614;SDS011;37695;52.960;6.188;2022-08-03T00:37:32;5.15;;;1.98;;
51614;SDS011;37695;52.960;6.188;2022-08-03T00:39:57;6.43;;;2.00;;
51614;SDS011;37695;52.960;6.188;2022-08-03T00:42:23;4.45;;;1.77;;
51614;SDS011;37695;52.960;6.188;2022-08-03T00:44:48;7.07;;;2.10;;
51614;SDS011;37695;52.960;6.188;2022-08-03T00:47:14;6.35;;;2.10;;
51614;SDS011;37695;52.960;6.188;2022-08-03T00:49:40;6.68;;;2.20;;
51614;SDS011;37695;52.960;6.188;2022-08-03T00:52:09;3.65;;;1.50;;
51614;SDS011;37695;52.960;6.188;2022-08-03T00:54:38;4.68;;;1.80;;
51614;SDS011;37695;52.960;6.188;2022-08-03T00:57:04;6.70;;;1.60;;
51614;SDS011;37695;52.960;6.188;2022-08-03T00:59:30;6.45;;;1.90;;
51614;SDS011;37695;52.960;6.188;2022-08-03T01:01:56;5.43;;;1.83;;
51614;SDS011;37695;52.960;6.188;2022-08-03T01:04:22;3.58;;;1.60;;
51614;SDS011;37695;52.960;6.188;2022-08-03T01:06:49;4.03;;;1.67;;
51614;SDS011;37695;52.960;6.188;2022-08-03T01:12:18;5.05;;;1.70;;
51614;SDS011;37695;52.960;6.188;2022-08-03T01:15:14;8.88;;;1.85;;
51614;SDS011;37695;52.960;6.188;2022-08-03T01:17:56;5.30;;;2.20;;
51614;SDS011;37695;52.960;6.188;2022-08-03T01:20:29;5.45;;;1.58;;
51614;SDS011;37695;52.960;6.188;2022-08-03T01:23:09;4.75;;;1.52;;
51614;SDS011;37695;52.960;6.188;2022-08-03T01:28:51;5.15;;;1.40;;
51614;SDS011;37695;52.960;6.188;2022-08-03T01:31:18;3.58;;;1.13;;
51614;SDS011;37695;52.960;6.188;2022-08-03T01:33:49;5.28;;;1.80;;
51614;SDS011;37695;52.960;6.188;2022-08-03T01:36:21;3.03;;;1.20;;
51614;SDS011;37695;52.960;6.188;2022-08-03T01:38:51;5.38;;;1.30;;
51614;SDS011;37695;52.960;6.188;2022-08-03T01:41:20;5.68;;;1.67;;
51614;SDS011;37695;52.960;6.188;2022-08-03T01:43:48;3.10;;;1.50;;
51614;SDS011;37695;52.960;6.188;2022-08-03T01:46:17;6.70;;;1.80;;
51614;SDS011;37695;52.960;6.188;2022-08-03T01:48:45;3.90;;;1.52;;
51614;SDS011;37695;52.960;6.188;2022-08-03T01:51:12;6.07;;;1.63;;
51614;SDS011;37695;52.960;6.188;2022-08-03T01:53:40;5.32;;;1.58;;
51614;SDS011;37695;52.960;6.188;2022-08-03T01:56:09;3.00;;;1.20;;
51614;SDS011;37695;52.960;6.188;2022-08-03T01:58:36;5.72;;;1.23;;
51614;SDS011;37695;52.960;6.188;2022-08-03T02:01:03;6.28;;;1.40;;
51614;SDS011;37695;52.960;6.188;2022-08-03T02:03:31;9.63;;;1.65;;
51614;SDS011;37695;52.960;6.188;2022-08-03T02:06:01;7.47;;;1.83;;
51614;SDS011;37695;52.960;6.188;2022-08-03T02:08:26;3.53;;;1.55;;
51614;SDS011;37695;52.960;6.188;2022-08-03T02:10:54;2.90;;;1.40;;
51614;SDS011;37695;52.960;6.188;2022-08-03T02:13:22;4.07;;;1.60;;
51614;SDS011;37695;52.960;6.188;2022-08-03T02:15:50;3.33;;;1.75;;
51614;SDS011;37695;52.960;6.188;2022-08-03T02:18:17;4.50;;;1.80;;
51614;SDS011;37695;52.960;6.188;2022-08-03T02:20:45;6.82;;;1.83;;
51614;SDS011;37695;52.960;6.188;2022-08-03T02:23:11;5.72;;;1.60;;
51614;SDS011;37695;52.960;6.188;2022-08-03T02:25:47;5.68;;;2.10;;
51614;SDS011;37695;52.960;6.188;2022-08-03T02:28:17;9.52;;;1.80;;
51614;SDS011;37695;52.960;6.188;2022-08-03T02:30:45;5.45;;;1.83;;
51614;SDS011;37695;52.960;6.188;2022-08-03T02:33:17;7.32;;;1.83;;
51614;SDS011;37695;52.960;6.188;2022-08-03T02:35:47;4.35;;;1.70;;
51614;SDS011;37695;52.960;6.188;2022-08-03T02:38:15;5.93;;;1.98;;
51614;SDS011;37695;52.960;6.188;2022-08-03T02:40:44;5.47;;;1.52;;
51614;SDS011;37695;52.960;6.188;2022-08-03T02:43:11;12.55;;;2.10;;
51614;SDS011;37695;52.960;6.188;2022-08-03T02:45:45;3.90;;;1.90;;
51614;SDS011;37695;52.960;6.188;2022-08-03T02:48:19;4.68;;;1.55;;
51614;SDS011;37695;52.960;6.188;2022-08-03T02:50:50;5.57;;;1.90;;
51614;SDS011;37695;52.960;6.188;2022-08-03T02:53:17;6.38;;;2.17;;
51614;SDS011;37695;52.960;6.188;2022-08-03T02:55:43;3.90;;;1.70;;
51614;SDS011;37695;52.960;6.188;2022-08-03T02:58:12;4.55;;;1.73;;
51614;SDS011;37695;52.960;6.188;2022-08-03T03:00:41;3.75;;;1.85;;
51614;SDS011;37695;52.960;6.188;2022-08-03T03:03:08;6.28;;;1.98;;
51614;SDS011;37695;52.960;6.188;2022-08-03T03:05:35;6.05;;;1.88;;
51614;SDS011;37695;52.960;6.188;2022-08-03T03:08:01;7.28;;;1.95;;
51614;SDS011;37695;52.960;6.188;2022-08-03T03:10:27;6.47;;;2.00;;
51614;SDS011;37695;52.960;6.188;2022-08-03T03:12:55;4.43;;;1.90;;
51614;SDS011;37695;52.960;6.188;2022-08-03T03:15:25;5.35;;;2.08;;
51614;SDS011;37695;52.960;6.188;2022-08-03T03:17:52;7.35;;;2.15;;
51614;SDS011;37695;52.960;6.188;2022-08-03T03:20:19;4.38;;;1.70;;
51614;SDS011;37695;52.960;6.188;2022-08-03T03:22:46;6.45;;;2.08;;
51614;SDS011;37695;52.960;6.188;2022-08-03T03:25:13;5.88;;;1.90;;
51614;SDS011;37695;52.960;6.188;2022-08-03T03:27:39;6.25;;;2.08;;
51614;SDS011;37695;52.960;6.188;2022-08-03T03:30:05;8.05;;;2.25;;
51614;SDS011;37695;52.960;6.188;2022-08-03T03:32:32;6.25;;;2.00;;
51614;SDS011;37695;52.960;6.188;2022-08-03T03:35:00;4.05;;;1.95;;
51614;SDS011;37695;52.960;6.188;2022-08-03T03:37:26;5.57;;;2.03;;
51614;SDS011;37695;52.960;6.188;2022-08-03T03:39:52;4.10;;;1.85;;
51614;SDS011;37695;52.960;6.188;2022-08-03T03:42:18;6.25;;;2.08;;
51614;SDS011;37695;52.960;6.188;2022-08-03T03:44:44;7.13;;;1.77;;
51614;SDS011;37695;52.960;6.188;2022-08-03T03:47:10;7.55;;;2.00;;
51614;SDS011;37695;52.960;6.188;2022-08-03T03:49:36;2.60;;;1.60;;
51614;SDS011;37695;52.960;6.188;2022-08-03T03:52:03;4.00;;;1.75;;
51614;SDS011;37695;52.960;6.188;2022-08-03T03:54:41;6.28;;;2.00;;
51614;SDS011;37695;52.960;6.188;2022-08-03T03:57:08;7.13;;;2.22;;
51614;SDS011;37695;52.960;6.188;2022-08-03T03:59:41;4.50;;;1.77;;
51614;SDS011;37695;52.960;6.188;2022-08-03T04:02:08;5.45;;;2.22;;
51614;SDS011;37695;52.960;6.188;2022-08-03T04:04:34;5.03;;;1.85;;
51614;SDS011;37695;52.960;6.188;2022-08-03T04:07:19;5.30;;;1.90;;
51614;SDS011;37695;52.960;6.188;2022-08-03T04:10:07;6.28;;;1.83;;
51614;SDS011;37695;52.960;6.188;2022-08-03T04:12:56;4.18;;;1.70;;
51614;SDS011;37695;52.960;6.188;2022-08-03T04:15:24;5.75;;;1.80;;
51614;SDS011;37695;52.960;6.188;2022-08-03T04:17:52;6.53;;;2.00;;
51614;SDS011;37695;52.960;6.188;2022-08-03T04:20:21;4.88;;;2.00;;
51614;SDS011;37695;52.960;6.188;2022-08-03T04:22:48;4.88;;;2.15;;
51614;SDS011;37695;52.960;6.188;2022-08-03T04:25:16;5.57;;;2.03;;
51614;SDS011;37695;52.960;6.188;2022-08-03T04:27:44;5.32;;;2.00;;
51614;SDS011;37695;52.960;6.188;2022-08-03T04:30:12;8.07;;;2.10;;
51614;SDS011;37695;52.960;6.188;2022-08-03T04:32:39;5.90;;;2.03;;
51614;SDS011;37695;52.960;6.188;2022-08-03T04:35:06;4.95;;;2.03;;
51614;SDS011;37695;52.960;6.188;2022-08-03T04:37:41;5.13;;;1.90;;
51614;SDS011;37695;52.960;6.188;2022-08-03T04:40:15;6.20;;;2.10;;
51614;SDS011;37695;52.960;6.188;2022-08-03T04:42:52;7.13;;;2.08;;
51614;SDS011;37695;52.960;6.188;2022-08-03T04:45:20;3.83;;;2.00;;
51614;SDS011;37695;52.960;6.188;2022-08-03T04:47:46;7.30;;;2.10;;
51614;SDS011;37695;52.960;6.188;2022-08-03T04:50:14;6.40;;;1.83;;
51614;SDS011;37695;52.960;6.188;2022-08-03T04:52:40;5.45;;;1.90;;
51614;SDS011;37695;52.960;6.188;2022-08-03T04:55:06;5.90;;;2.15;;
51614;SDS011;37695;52.960;6.188;2022-08-03T04:57:32;8.35;;;1.92;;
51614;SDS011;37695;52.960;6.188;2022-08-03T04:59:58;6.65;;;1.88;;
51614;SDS011;37695;52.960;6.188;2022-08-03T05:02:23;5.25;;;1.90;;
51614;SDS011;37695;52.960;6.188;2022-08-03T05:04:49;6.68;;;2.15;;
51614;SDS011;37695;52.960;6.188;2022-08-03T05:07:15;7.53;;;2.15;;
51614;SDS011;37695;52.960;6.188;2022-08-03T05:09:41;7.72;;;2.42;;
51614;SDS011;37695;52.960;6.188;2022-08-03T05:12:08;5.85;;;2.22;;
51614;SDS011;37695;52.960;6.188;2022-08-03T05:14:34;5.95;;;2.03;;
51614;SDS011;37695;52.960;6.188;2022-08-03T05:17:05;7.90;;;2.35;;
51614;SDS011;37695;52.960;6.188;2022-08-03T05:19:31;6.57;;;2.13;;
51614;SDS011;37695;52.960;6.188;2022-08-03T05:21:56;8.95;;;2.00;;
51614;SDS011;37695;52.960;6.188;2022-08-03T05:24:22;8.52;;;2.20;;
51614;SDS011;37695;52.960;6.188;2022-08-03T05:26:48;4.88;;;2.13;;
51614;SDS011;37695;52.960;6.188;2022-08-03T05:29:13;8.10;;;2.42;;
51614;SDS011;37695;52.960;6.188;2022-08-03T05:31:39;7.55;;;2.17;;
51614;SDS011;37695;52.960;6.188;2022-08-03T05:34:04;5.65;;;2.72;;
51614;SDS011;37695;52.960;6.188;2022-08-03T05:36:30;6.60;;;1.98;;
51614;SDS011;37695;52.960;6.188;2022-08-03T05:38:56;7.72;;;2.30;;
51614;SDS011;37695;52.960;6.188;2022-08-03T05:41:22;7.70;;;2.33;;
51614;SDS011;37695;52.960;6.188;2022-08-03T05:43:47;7.05;;;2.38;;
51614;SDS011;37695;52.960;6.188;2022-08-03T05:46:13;6.68;;;2.42;;
51614;SDS011;37695;52.960;6.188;2022-08-03T05:48:39;6.50;;;2.42;;
51614;SDS011;37695;52.960;6.188;2022-08-03T05:51:05;6.78;;;2.55;;
51614;SDS011;37695;52.960;6.188;2022-08-03T05:53:35;4.82;;;2.13;;
51614;SDS011;37695;52.960;6.188;2022-08-03T05:56:01;9.68;;;2.67;;
51614;SDS011;37695;52.960;6.188;2022-08-03T05:58:26;8.52;;;2.78;;
51614;SDS011;37695;52.960;6.188;2022-08-03T06:00:52;6.50;;;2.40;;
51614;SDS011;37695;52.960;6.188;2022-08-03T06:03:17;12.93;;;2.80;;
51614;SDS011;37695;52.960;6.188;2022-08-03T06:05:44;7.60;;;2.60;;
51614;SDS011;37695;52.960;6.188;2022-08-03T06:08:10;5.07;;;2.60;;
51614;SDS011;37695;52.960;6.188;2022-08-03T06:10:35;10.48;;;2.58;;
51614;SDS011;37695;52.960;6.188;2022-08-03T06:13:01;6.30;;;2.67;;
51614;SDS011;37695;52.960;6.188;2022-08-03T06:15:26;6.05;;;2.30;;
51614;SDS011;37695;52.960;6.188;2022-08-03T06:17:52;6.80;;;2.55;;
51614;SDS011;37695;52.960;6.188;2022-08-03T06:20:18;5.53;;;2.33;;
51614;SDS011;37695;52.960;6.188;2022-08-03T06:22:45;6.82;;;2.58;;
51614;SDS011;37695;52.960;6.188;2022-08-03T06:25:12;9.05;;;2.50;;
51614;SDS011;37695;52.960;6.188;2022-08-03T06:27:37;5.30;;;2.58;;
51614;SDS011;37695;52.960;6.188;2022-08-03T06:30:04;7.15;;;2.40;;
51614;SDS011;37695;52.960;6.188;2022-08-03T06:32:31;8.82;;;2.75;;
51614;SDS011;37695;52.960;6.188;2022-08-03T06:34:57;8.93;;;2.72;;
51614;SDS011;37695;52.960;6.188;2022-08-03T06:37:23;9.23;;;2.78;;
51614;SDS011;37695;52.960;6.188;2022-08-03T06:39:50;6.30;;;2.20;;
51614;SDS011;37695;52.960;6.188;2022-08-03T06:42:16;6.90;;;2.40;;
51614;SDS011;37695;52.960;6.188;2022-08-03T06:44:42;9.10;;;2.58;;
51614;SDS011;37695;52.960;6.188;2022-08-03T06:47:08;8.30;;;2.70;;
51614;SDS011;37695;52.960;6.188;2022-08-03T06:49:33;14.63;;;3.10;;
51614;SDS011;37695;52.960;6.188;2022-08-03T06:51:59;7.90;;;2.90;;
51614;SDS011;37695;52.960;6.188;2022-08-03T06:54:25;8.88;;;2.58;;
51614;SDS011;37695;52.960;6.188;2022-08-03T06:56:50;8.65;;;2.90;;
51614;SDS011;37695;52.960;6.188;2022-08-03T06:59:16;9.38;;;2.55;;
51614;SDS011;37695;52.960;6.188;2022-08-03T07:01:41;8.63;;;3.22;;
51614;SDS011;37695;52.960;6.188;2022-08-03T07:04:07;8.30;;;2.90;;
51614;SDS011;37695;52.960;6.188;2022-08-03T07:06:33;8.10;;;2.60;;
51614;SDS011;37695;52.960;6.188;2022-08-03T07:08:58;8.63;;;2.90;;
51614;SDS011;37695;52.960;6.188;2022-08-03T07:11:24;9.10;;;2.60;;
51614;SDS011;37695;52.960;6.188;2022-08-03T07:13:50;9.57;;;2.42;;
51614;SDS011;37695;52.960;6.188;2022-08-03T07:16:15;8.98;;;3.05;;
51614;SDS011;37695;52.960;6.188;2022-08-03T07:18:41;9.45;;;3.28;;
51614;SDS011;37695;52.960;6.188;2022-08-03T07:21:07;7.28;;;2.42;;
51614;SDS011;37695;52.960;6.188;2022-08-03T07:23:34;10.18;;;3.00;;
51614;SDS011;37695;52.960;6.188;2022-08-03T07:26:00;6.15;;;2.90;;
51614;SDS011;37695;52.960;6.188;2022-08-03T07:28:25;7.57;;;2.97;;
51614;SDS011;37695;52.960;6.188;2022-08-03T07:30:52;10.10;;;3.00;;
51614;SDS011;37695;52.960;6.188;2022-08-03T07:33:17;6.70;;;3.10;;
51614;SDS011;37695;52.960;6.188;2022-08-03T07:35:43;12.88;;;3.42;;
51614;SDS011;37695;52.960;6.188;2022-08-03T07:38:09;8.05;;;2.85;;
51614;SDS011;37695;52.960;6.188;2022-08-03T07:40:34;10.25;;;3.38;;
51614;SDS011;37695;52.960;6.188;2022-08-03T07:43:00;8.13;;;2.97;;
51614;SDS011;37695;52.960;6.188;2022-08-03T07:45:27;8.30;;;3.15;;
51614;SDS011;37695;52.960;6.188;2022-08-03T07:47:54;7.57;;;2.88;;
51614;SDS011;37695;52.960;6.188;2022-08-03T07:50:20;13.23;;;3.22;;
51614;SDS011;37695;52.960;6.188;2022-08-03T07:52:46;10.68;;;3.25;;
51614;SDS011;37695;52.960;6.188;2022-08-03T07:55:12;8.73;;;3.25;;
51614;SDS011;37695;52.960;6.188;2022-08-03T07:57:37;5.25;;;2.67;;
51614;SDS011;37695;52.960;6.188;2022-08-03T08:00:04;7.57;;;3.35;;
51614;SDS011;37695;52.960;6.188;2022-08-03T08:02:33;8.35;;;3.33;;
51614;SDS011;37695;52.960;6.188;2022-08-03T08:04:58;9.70;;;3.40;;
51614;SDS011;37695;52.960;6.188;2022-08-03T08:07:24;9.43;;;2.92;;
51614;SDS011;37695;52.960;6.188;2022-08-03T08:09:50;10.68;;;3.25;;
51614;SDS011;37695;52.960;6.188;2022-08-03T08:12:15;7.80;;;2.72;;
51614;SDS011;37695;52.960;6.188;2022-08-03T08:14:41;9.95;;;3.28;;
51614;SDS011;37695;52.960;6.188;2022-08-03T08:17:09;7.15;;;3.22;;
51614;SDS011;37695;52.960;6.188;2022-08-03T08:19:35;10.30;;;3.58;;
51614;SDS011;37695;52.960;6.188;2022-08-03T08:22:00;7.32;;;3.13;;
51614;SDS011;37695;52.960;6.188;2022-08-03T08:24:26;7.63;;;3.17;;
51614;SDS011;37695;52.960;6.188;2022-08-03T08:26:54;12.57;;;3.78;;
51614;SDS011;37695;52.960;6.188;2022-08-03T08:29:20;6.95;;;3.03;;
51614;SDS011;37695;52.960;6.188;2022-08-03T08:31:47;10.68;;;3.42;;
51614;SDS011;37695;52.960;6.188;2022-08-03T08:34:14;9.85;;;3.00;;
51614;SDS011;37695;52.960;6.188;2022-08-03T08:36:40;7.97;;;3.08;;
51614;SDS011;37695;52.960;6.188;2022-08-03T08:39:06;8.77;;;3.50;;
51614;SDS011;37695;52.960;6.188;2022-08-03T08:41:31;10.95;;;3.47;;
51614;SDS011;37695;52.960;6.188;2022-08-03T08:44:00;9.77;;;3.65;;
51614;SDS011;37695;52.960;6.188;2022-08-03T08:46:26;9.10;;;3.38;;
51614;SDS011;37695;52.960;6.188;2022-08-03T08:48:56;11.10;;;3.13;;
51614;SDS011;37695;52.960;6.188;2022-08-03T08:51:26;11.57;;;3.22;;
51614;SDS011;37695;52.960;6.188;2022-08-03T08:53:53;9.30;;;3.47;;
51614;SDS011;37695;52.960;6.188;2022-08-03T08:56:21;10.15;;;3.35;;
51614;SDS011;37695;52.960;6.188;2022-08-03T08:58:55;11.52;;;3.50;;
51614;SDS011;37695;52.960;6.188;2022-08-03T09:01:22;9.95;;;3.05;;
51614;SDS011;37695;52.960;6.188;2022-08-03T09:03:48;8.77;;;3.20;;
51614;SDS011;37695;52.960;6.188;2022-08-03T09:06:15;8.30;;;3.13;;
51614;SDS011;37695;52.960;6.188;2022-08-03T09:08:41;10.23;;;3.90;;
51614;SDS011;37695;52.960;6.188;2022-08-03T09:11:06;13.45;;;3.58;;
51614;SDS011;37695;52.960;6.188;2022-08-03T09:13:33;7.80;;;3.00;;
51614;SDS011;37695;52.960;6.188;2022-08-03T09:16:21;8.75;;;3.80;;
51614;SDS011;37695;52.960;6.188;2022-08-03T09:18:49;7.25;;;3.38;;
51614;SDS011;37695;52.960;6.188;2022-08-03T09:21:24;7.55;;;3.55;;
51614;SDS011;37695;52.960;6.188;2022-08-03T09:23:53;8.93;;;3.97;;
51614;SDS011;37695;52.960;6.188;2022-08-03T09:26:24;10.88;;;3.65;;
51614;SDS011;37695;52.960;6.188;2022-08-03T09:29:04;11.20;;;4.28;;
51614;SDS011;37695;52.960;6.188;2022-08-03T09:31:39;10.05;;;3.30;;
51614;SDS011;37695;52.960;6.188;2022-08-03T09:34:07;10.48;;;3.78;;
51614;SDS011;37695;52.960;6.188;2022-08-03T09:36:41;11.57;;;3.60;;
51614;SDS011;37695;52.960;6.188;2022-08-03T09:39:14;9.30;;;3.72;;
51614;SDS011;37695;52.960;6.188;2022-08-03T09:41:42;7.65;;;3.05;;
51614;SDS011;37695;52.960;6.188;2022-08-03T09:44:09;7.53;;;3.17;;
51614;SDS011;37695;52.960;6.188;2022-08-03T09:46:48;10.90;;;4.47;;
51614;SDS011;37695;52.960;6.188;2022-08-03T09:49:20;8.95;;;3.55;;
51614;SDS011;37695;52.960;6.188;2022-08-03T09:51:46;11.32;;;4.30;;
51614;SDS011;37695;52.960;6.188;2022-08-03T09:54:12;10.25;;;3.53;;
51614;SDS011;37695;52.960;6.188;2022-08-03T09:56:53;10.60;;;3.65;;
51614;SDS011;37695;52.960;6.188;2022-08-03T09:59:23;9.98;;;3.55;;
51614;SDS011;37695;52.960;6.188;2022-08-03T10:01:51;8.45;;;3.50;;
51614;SDS011;37695;52.960;6.188;2022-08-03T10:04:17;8.98;;;3.97;;
51614;SDS011;37695;52.960;6.188;2022-08-03T10:07:00;9.30;;;3.92;;
51614;SDS011;37695;52.960;6.188;2022-08-03T10:09:33;12.77;;;3.95;;
51614;SDS011;37695;52.960;6.188;2022-08-03T10:12:09;12.57;;;3.95;;
51614;SDS011;37695;52.960;6.188;2022-08-03T10:14:37;11.55;;;3.80;;
51614;SDS011;37695;52.960;6.188;2022-08-03T10:17:04;12.52;;;4.57;;
51614;SDS011;37695;52.960;6.188;2022-08-03T10:19:30;9.73;;;3.75;;
51614;SDS011;37695;52.960;6.188;2022-08-03T10:21:58;10.57;;;4.63;;
51614;SDS011;37695;52.960;6.188;2022-08-03T10:24:28;13.98;;;3.67;;
51614;SDS011;37695;52.960;6.188;2022-08-03T10:27:01;11.98;;;4.22;;
51614;SDS011;37695;52.960;6.188;2022-08-03T10:29:52;10.23;;;3.92;;
51614;SDS011;37695;52.960;6.188;2022-08-03T10:35:11;11.38;;;3.83;;
51614;SDS011;37695;52.960;6.188;2022-08-03T10:37:42;10.35;;;3.92;;
51614;SDS011;37695;52.960;6.188;2022-08-03T10:40:11;9.95;;;3.47;;
51614;SDS011;37695;52.960;6.188;2022-08-03T10:42:44;13.95;;;3.80;;
51614;SDS011;37695;52.960;6.188;2022-08-03T10:45:17;10.75;;;3.35;;
51614;SDS011;37695;52.960;6.188;2022-08-03T10:47:45;8.43;;;3.75;;
51614;SDS011;37695;52.960;6.188;2022-08-03T10:50:15;13.65;;;3.97;;
51614;SDS011;37695;52.960;6.188;2022-08-03T10:52:57;9.85;;;3.10;;
51614;SDS011;37695;52.960;6.188;2022-08-03T10:55:36;13.75;;;3.70;;
51614;SDS011;37695;52.960;6.188;2022-08-03T11:01:08;10.35;;;3.58;;
51614;SDS011;37695;52.960;6.188;2022-08-03T11:04:35;15.73;;;4.65;;
51614;SDS011;37695;52.960;6.188;2022-08-03T11:06:30;11.13;;;3.72;;
51614;SDS011;37695;52.960;6.188;2022-08-03T11:11:33;10.95;;;3.42;;
51614;SDS011;37695;52.960;6.188;2022-08-03T11:16:40;12.40;;;3.33;;
51614;SDS011;37695;52.960;6.188;2022-08-03T11:19:12;11.48;;;3.90;;
51614;SDS011;37695;52.960;6.188;2022-08-03T11:29:58;8.23;;;3.00;;
51614;SDS011;37695;52.960;6.188;2022-08-03T11:35:09;13.82;;;3.90;;
51614;SDS011;37695;52.960;6.188;2022-08-03T11:45:56;14.27;;;5.45;;
51614;SDS011;37695;52.960;6.188;2022-08-03T11:51:03;11.10;;;4.60;;
51614;SDS011;37695;52.960;6.188;2022-08-03T11:53:30;14.25;;;5.45;;
51614;SDS011;37695;52.960;6.188;2022-08-03T11:56:00;9.40;;;5.03;;
51614;SDS011;37695;52.960;6.188;2022-08-03T11:58:26;13.27;;;4.75;;
51614;SDS011;37695;52.960;6.188;2022-08-03T12:01:01;13.95;;;5.75;;
51614;SDS011;37695;52.960;6.188;2022-08-03T12:03:31;14.57;;;4.63;;
51614;SDS011;37695;52.960;6.188;2022-08-03T12:05:58;15.15;;;4.50;;
51614;SDS011;37695;52.960;6.188;2022-08-03T12:10:56;13.45;;;4.32;;
51614;SDS011;37695;52.960;6.188;2022-08-03T12:13:23;11.57;;;4.38;;
51614;SDS011;37695;52.960;6.188;2022-08-03T12:15:55;13.90;;;4.13;;
51614;SDS011;37695;52.960;6.188;2022-08-03T12:18:22;15.85;;;4.40;;
51614;SDS011;37695;52.960;6.188;2022-08-03T12:20:49;10.00;;;4.07;;
51614;SDS011;37695;52.960;6.188;2022-08-03T12:23:16;11.00;;;4.93;;
51614;SDS011;37695;52.960;6.188;2022-08-03T12:25:44;10.95;;;4.88;;
51614;SDS011;37695;52.960;6.188;2022-08-03T12:30:49;11.77;;;4.60;;
51614;SDS011;37695;52.960;6.188;2022-08-03T12:33:17;13.55;;;4.95;;
51614;SDS011;37695;52.960;6.188;2022-08-03T12:35:46;8.25;;;4.03;;
51614;SDS011;37695;52.960;6.188;2022-08-03T12:38:17;10.80;;;4.28;;
51614;SDS011;37695;52.960;6.188;2022-08-03T12:40:44;13.93;;;4.53;;
51614;SDS011;37695;52.960;6.188;2022-08-03T12:43:12;11.98;;;4.07;;
51614;SDS011;37695;52.960;6.188;2022-08-03T12:45:38;12.65;;;4.32;;
51614;SDS011;37695;52.960;6.188;2022-08-03T12:48:06;13.20;;;3.78;;
51614;SDS011;37695;52.960;6.188;2022-08-03T12:50:35;11.68;;;4.55;;
51614;SDS011;37695;52.960;6.188;2022-08-03T12:53:03;12.77;;;4.50;;
51614;SDS011;37695;52.960;6.188;2022-08-03T12:55:30;11.93;;;4.22;;
51614;SDS011;37695;52.960;6.188;2022-08-03T12:58:00;11.25;;;4.65;;
51614;SDS011;37695;52.960;6.188;2022-08-03T13:00:28;8.40;;;3.65;;
51614;SDS011;37695;52.960;6.188;2022-08-03T13:02:58;13.90;;;4.25;;
51614;SDS011;37695;52.960;6.188;2022-08-03T13:05:24;11.05;;;4.10;;
51614;SDS011;37695;52.960;6.188;2022-08-03T13:07:50;11.10;;;3.67;;
51614;SDS011;37695;52.960;6.188;2022-08-03T13:10:32;7.93;;;3.58;;
51614;SDS011;37695;52.960;6.188;2022-08-03T13:12:59;8.23;;;3.38;;
51614;SDS011;37695;52.960;6.188;2022-08-03T13:15:27;10.50;;;3.17;;
51614;SDS011;37695;52.960;6.188;2022-08-03T13:17:54;8.98;;;3.38;;
51614;SDS011;37695;52.960;6.188;2022-08-03T13:20:20;11.02;;;3.50;;
51614;SDS011;37695;52.960;6.188;2022-08-03T13:22:46;7.97;;;3.67;;
51614;SDS011;37695;52.960;6.188;2022-08-03T13:25:12;7.25;;;3.00;;
51614;SDS011;37695;52.960;6.188;2022-08-03T13:27:38;13.68;;;3.50;;
51614;SDS011;37695;52.960;6.188;2022-08-03T13:30:05;8.98;;;3.53;;
51614;SDS011;37695;52.960;6.188;2022-08-03T13:32:31;8.68;;;3.30;;
51614;SDS011;37695;52.960;6.188;2022-08-03T13:34:57;7.63;;;3.40;;
51614;SDS011;37695;52.960;6.188;2022-08-03T13:37:23;7.30;;;3.28;;
51614;SDS011;37695;52.960;6.188;2022-08-03T13:39:49;6.85;;;2.80;;
51614;SDS011;37695;52.960;6.188;2022-08-03T13:42:15;9.70;;;3.22;;
51614;SDS011;37695;52.960;6.188;2022-08-03T13:44:40;9.90;;;3.35;;
51614;SDS011;37695;52.960;6.188;2022-08-03T13:47:06;7.72;;;3.17;;
51614;SDS011;37695;52.960;6.188;2022-08-03T13:49:32;7.82;;;3.60;;
51614;SDS011;37695;52.960;6.188;2022-08-03T13:51:58;7.20;;;3.22;;
51614;SDS011;37695;52.960;6.188;2022-08-03T13:54:23;12.00;;;3.15;;
51614;SDS011;37695;52.960;6.188;2022-08-03T13:56:49;9.60;;;3.45;;
51614;SDS011;37695;52.960;6.188;2022-08-03T13:59:21;7.80;;;3.22;;
51614;SDS011;37695;52.960;6.188;2022-08-03T14:01:48;8.43;;;3.30;;
51614;SDS011;37695;52.960;6.188;2022-08-03T14:04:15;13.77;;;3.72;;
51614;SDS011;37695;52.960;6.188;2022-08-03T14:06:41;9.23;;;3.67;;
51614;SDS011;37695;52.960;6.188;2022-08-03T14:09:10;7.28;;;3.35;;
51614;SDS011;37695;52.960;6.188;2022-08-03T14:11:37;9.20;;;3.50;;
51614;SDS011;37695;52.960;6.188;2022-08-03T14:14:03;9.63;;;3.30;;
51614;SDS011;37695;52.960;6.188;2022-08-03T14:16:29;7.75;;;3.35;;
51614;SDS011;37695;52.960;6.188;2022-08-03T14:18:54;11.15;;;3.67;;
51614;SDS011;37695;52.960;6.188;2022-08-03T14:21:20;11.77;;;3.88;;
51614;SDS011;37695;52.960;6.188;2022-08-03T14:23:46;7.85;;;4.00;;
51614;SDS011;37695;52.960;6.188;2022-08-03T14:26:11;9.82;;;3.65;;
51614;SDS011;37695;52.960;6.188;2022-08-03T14:28:38;9.98;;;4.63;;
51614;SDS011;37695;52.960;6.188;2022-08-03T14:31:05;9.77;;;4.15;;
51614;SDS011;37695;52.960;6.188;2022-08-03T14:33:30;9.07;;;3.88;;
51614;SDS011;37695;52.960;6.188;2022-08-03T14:35:56;10.32;;;4.10;;
51614;SDS011;37695;52.960;6.188;2022-08-03T14:38:22;10.32;;;4.28;;
51614;SDS011;37695;52.960;6.188;2022-08-03T14:40:47;9.57;;;4.50;;
51614;SDS011;37695;52.960;6.188;2022-08-03T14:43:14;10.52;;;4.50;;
51614;SDS011;37695;52.960;6.188;2022-08-03T14:45:42;11.75;;;4.25;;
51614;SDS011;37695;52.960;6.188;2022-08-03T14:48:07;12.63;;;4.10;;
51614;SDS011;37695;52.960;6.188;2022-08-03T14:50:33;8.35;;;3.58;;
51614;SDS011;37695;52.960;6.188;2022-08-03T14:52:59;9.90;;;3.80;;
51614;SDS011;37695;52.960;6.188;2022-08-03T14:55:24;8.65;;;3.92;;
51614;SDS011;37695;52.960;6.188;2022-08-03T14:57:50;11.68;;;3.80;;
51614;SDS011;37695;52.960;6.188;2022-08-03T15:00:15;15.30;;;3.72;;
51614;SDS011;37695;52.960;6.188;2022-08-03T15:02:41;7.70;;;2.60;;
51614;SDS011;37695;52.960;6.188;2022-08-03T15:05:07;7.85;;;3.08;;
51614;SDS011;37695;52.960;6.188;2022-08-03T15:07:34;11.63;;;3.20;;
51614;SDS011;37695;52.960;6.188;2022-08-03T15:10:00;9.32;;;3.03;;
51614;SDS011;37695;52.960;6.188;2022-08-03T15:12:25;8.60;;;3.15;;
51614;SDS011;37695;52.960;6.188;2022-08-03T15:14:51;7.03;;;2.92;;
51614;SDS011;37695;52.960;6.188;2022-08-03T15:17:17;7.20;;;3.15;;
51614;SDS011;37695;52.960;6.188;2022-08-03T15:19:42;6.90;;;2.90;;
51614;SDS011;37695;52.960;6.188;2022-08-03T15:22:08;9.52;;;3.00;;
51614;SDS011;37695;52.960;6.188;2022-08-03T15:24:33;10.43;;;3.30;;
51614;SDS011;37695;52.960;6.188;2022-08-03T15:26:59;9.60;;;3.45;;
51614;SDS011;37695;52.960;6.188;2022-08-03T15:29:25;11.13;;;3.08;;
51614;SDS011;37695;52.960;6.188;2022-08-03T15:31:50;8.30;;;3.22;;